sensor_id;sensor_type;location;lat;lon;timestamp;pressure;altitude;pressure_sealevel;temperature;humidity
37202;BME280;37799;52.390;6.136;2022-08-30T00:01:31;102178.50;;;13.44;100.00
37202;BME280;37799;52.390;6.136;2022-08-30T00:03:57;102178.59;;;13.38;100.00
37202;BME280;37799;52.390;6.136;2022-08-30T00:06:24;102171.75;;;13.34;100.00
37202;BME280;37799;52.390;6.136;2022-08-30T00:08:51;102177.88;;;13.30;100.00
37202;BME280;37799;52.390;6.136;2022-08-30T00:11:19;102171.81;;;13.28;100.00
37202;BME280;37799;52.390;6.136;2022-08-30T00:13:47;102171.00;;;13.26;100.00
37202;BME280;37799;52.390;6.136;2022-08-30T00:16:15;102167.63;;;13.19;100.00
37202;BME280;37799;52.390;6.136;2022-08-30T00:18:42;102171.16;;;13.15;100.00
37202;BME280;37799;52.390;6.136;2022-08-30T00:21:08;102172.03;;;13.13;100.00
37202;BME280;37799;52.390;6.136;2022-08-30T00:23:34;102174.66;;;13.11;100.00
37202;BME280;37799;52.390;6.136;2022-08-30T00:25:59;102173.84;;;13.08;100.00
37202;BME280;37799;52.390;6.136;2022-08-30T00:28:26;102173.03;;;13.06;100.00
37202;BME280;37799;52.390;6.136;2022-08-30T00:30:52;102166.13;;;13.03;100.00
37202;BME280;37799;52.390;6.136;2022-08-30T00:33:17;102168.72;;;13.02;100.00
37202;BME280;37799;52.390;6.136;2022-08-30T00:35:43;102167.91;;;12.99;100.00
37202;BME280;37799;52.390;6.136;2022-08-30T00:38:10;102160.16;;;12.96;100.00
37202;BME280;37799;52.390;6.136;2022-08-30T00:40:37;102158.53;;;12.89;100.00
37202;BME280;37799;52.390;6.136;2022-08-30T00:43:06;102160.28;;;12.87;100.00
37202;BME280;37799;52.390;6.136;2022-08-30T00:45:35;102160.28;;;12.86;100.00
37202;BME280;37799;52.390;6.136;2022-08-30T00:48:01;102156.00;;;12.83;100.00
37202;BME280;37799;52.390;6.136;2022-08-30T00:50:31;102156.91;;;12.81;100.00
37202;BME280;37799;52.390;6.136;2022-08-30T00:52:59;102162.97;;;12.81;100.00
37202;BME280;37799;52.390;6.136;2022-08-30T00:55:25;102162.09;;;12.82;100.00
37202;BME280;37799;52.390;6.136;2022-08-30T00:57:55;102162.09;;;12.82;100.00
37202;BME280;37799;52.390;6.136;2022-08-30T01:00:22;102161.22;;;12.82;100.00
37202;BME280;37799;52.390;6.136;2022-08-30T01:02:47;102158.59;;;12.83;100.00
37202;BME280;37799;52.390;6.136;2022-08-30T01:05:13;102163.72;;;12.91;100.00
37202;BME280;37799;52.390;6.136;2022-08-30T01:07:39;102159.44;;;12.85;100.00
37202;BME280;37799;52.390;6.136;2022-08-30T01:10:07;102159.50;;;12.82;100.00
37202;BME280;37799;52.390;6.136;2022-08-30T01:12:35;102166.47;;;12.80;100.00
37202;BME280;37799;52.390;6.136;2022-08-30T01:15:00;102170.81;;;12.78;100.00
37202;BME280;37799;52.390;6.136;2022-08-30T01:17:25;102175.19;;;12.73;100.00
37202;BME280;37799;52.390;6.136;2022-08-30T01:23:03;102176.13;;;12.69;100.00
37202;BME280;37799;52.390;6.136;2022-08-30T01:25:28;102181.41;;;12.63;100.00
37202;BME280;37799;52.390;6.136;2022-08-30T01:27:58;102176.19;;;12.63;100.00
37202;BME280;37799;52.390;6.136;2022-08-30T01:30:26;102179.69;;;12.62;100.00
37202;BME280;37799;52.390;6.136;2022-08-30T01:32:57;102186.59;;;12.63;100.00
37202;BME280;37799;52.390;6.136;2022-08-30T01:35:23;102180.53;;;12.64;100.00
37202;BME280;37799;52.390;6.136;2022-08-30T01:37:48;102177.06;;;12.62;100.00
37202;BME280;37799;52.390;6.136;2022-08-30T01:40:16;102175.38;;;12.59;100.00
37202;BME280;37799;52.390;6.136;2022-08-30T01:42:43;102181.50;;;12.57;100.00
37202;BME280;37799;52.390;6.136;2022-08-30T01:45:09;102184.09;;;12.57;100.00
37202;BME280;37799;52.390;6.136;2022-08-30T01:47:35;102183.28;;;12.53;100.00
37202;BME280;37799;52.390;6.136;2022-08-30T01:50:00;102189.31;;;12.55;100.00
37202;BME280;37799;52.390;6.136;2022-08-30T01:52:26;102191.03;;;12.55;100.00
37202;BME280;37799;52.390;6.136;2022-08-30T01:54:52;102184.13;;;12.54;100.00
37202;BME280;37799;52.390;6.136;2022-08-30T01:57:19;102184.13;;;12.54;100.00
37202;BME280;37799;52.390;6.136;2022-08-30T01:59:46;102182.44;;;12.51;100.00
37202;BME280;37799;52.390;6.136;2022-08-30T02:02:15;102191.09;;;12.52;100.00
37202;BME280;37799;52.390;6.136;2022-08-30T02:04:42;102192.84;;;12.51;100.00
37202;BME280;37799;52.390;6.136;2022-08-30T02:07:08;102187.69;;;12.45;100.00
37202;BME280;37799;52.390;6.136;2022-08-30T02:09:33;102182.41;;;12.54;100.00
37202;BME280;37799;52.390;6.136;2022-08-30T02:11:59;102183.19;;;12.58;100.00
37202;BME280;37799;52.390;6.136;2022-08-30T02:14:24;102185.72;;;12.62;100.00
37202;BME280;37799;52.390;6.136;2022-08-30T02:16:49;102180.53;;;12.62;100.00
37202;BME280;37799;52.390;6.136;2022-08-30T02:19:15;102183.94;;;12.67;100.00
37202;BME280;37799;52.390;6.136;2022-08-30T02:21:40;102182.13;;;12.73;100.00
37202;BME280;37799;52.390;6.136;2022-08-30T02:24:05;102186.44;;;12.75;100.00
37202;BME280;37799;52.390;6.136;2022-08-30T02:26:31;102186.44;;;12.75;100.00
37202;BME280;37799;52.390;6.136;2022-08-30T02:28:56;102185.56;;;12.75;100.00
37202;BME280;37799;52.390;6.136;2022-08-30T02:31:21;102181.25;;;12.77;100.00
37202;BME280;37799;52.390;6.136;2022-08-30T02:33:49;102183.03;;;12.72;100.00
37202;BME280;37799;52.390;6.136;2022-08-30T02:36:14;102183.09;;;12.67;100.00
37202;BME280;37799;52.390;6.136;2022-08-30T02:38:40;102180.53;;;12.65;100.00
37202;BME280;37799;52.390;6.136;2022-08-30T02:41:05;102183.16;;;12.61;100.00
37202;BME280;37799;52.390;6.136;2022-08-30T02:43:31;102185.72;;;12.65;100.00
37202;BME280;37799;52.390;6.136;2022-08-30T02:45:56;102181.47;;;12.58;100.00
37202;BME280;37799;52.390;6.136;2022-08-30T02:48:22;102177.22;;;12.53;100.00
37202;BME280;37799;52.390;6.136;2022-08-30T02:50:49;102177.25;;;12.51;100.00
37202;BME280;37799;52.390;6.136;2022-08-30T02:53:15;102176.38;;;12.51;100.00
37202;BME280;37799;52.390;6.136;2022-08-30T02:55:40;102176.38;;;12.51;100.00
37202;BME280;37799;52.390;6.136;2022-08-30T02:58:06;102170.38;;;12.44;100.00
37202;BME280;37799;52.390;6.136;2022-08-30T03:00:32;102177.31;;;12.45;100.00
37202;BME280;37799;52.390;6.136;2022-08-30T03:02:58;102173.84;;;12.45;100.00
37202;BME280;37799;52.390;6.136;2022-08-30T03:05:24;102172.91;;;12.49;100.00
37202;BME280;37799;52.390;6.136;2022-08-30T03:07:50;102175.53;;;12.50;100.00
37202;BME280;37799;52.390;6.136;2022-08-30T03:10:16;102175.50;;;12.52;100.00
37202;BME280;37799;52.390;6.136;2022-08-30T03:12:42;102165.13;;;12.50;100.00
37202;BME280;37799;52.390;6.136;2022-08-30T03:15:10;102157.31;;;12.52;100.00
37202;BME280;37799;52.390;6.136;2022-08-30T03:17:37;102164.22;;;12.53;100.00
37202;BME280;37799;52.390;6.136;2022-08-30T03:20:03;102160.69;;;12.57;100.00
37202;BME280;37799;52.390;6.136;2022-08-30T03:22:28;102161.63;;;12.53;100.00
37202;BME280;37799;52.390;6.136;2022-08-30T03:24:54;102167.72;;;12.49;100.00
37202;BME280;37799;52.390;6.136;2022-08-30T03:27:24;102166.84;;;12.51;100.00
37202;BME280;37799;52.390;6.136;2022-08-30T03:29:50;102171.09;;;12.57;100.00
37202;BME280;37799;52.390;6.136;2022-08-30T03:32:15;102174.69;;;12.47;100.00
37202;BME280;37799;52.390;6.136;2022-08-30T03:34:41;102166.09;;;12.42;100.00
37202;BME280;37799;52.390;6.136;2022-08-30T03:37:06;102166.09;;;12.42;100.00
37202;BME280;37799;52.390;6.136;2022-08-30T03:39:31;102173.97;;;12.37;100.00
37202;BME280;37799;52.390;6.136;2022-08-30T03:41:57;102167.91;;;12.33;100.00
37202;BME280;37799;52.390;6.136;2022-08-30T03:44:22;102163.56;;;12.35;100.00
37202;BME280;37799;52.390;6.136;2022-08-30T03:46:48;102167.03;;;12.34;100.00
37202;BME280;37799;52.390;6.136;2022-08-30T03:49:14;102162.72;;;12.33;100.00
37202;BME280;37799;52.390;6.136;2022-08-30T03:51:40;102163.69;;;12.26;100.00
37202;BME280;37799;52.390;6.136;2022-08-30T03:54:05;102171.41;;;12.32;100.00
37202;BME280;37799;52.390;6.136;2022-08-30T03:56:31;102164.47;;;12.33;100.00
37202;BME280;37799;52.390;6.136;2022-08-30T03:58:56;102159.25;;;12.34;100.00
37202;BME280;37799;52.390;6.136;2022-08-30T04:01:21;102160.06;;;12.39;100.00
37202;BME280;37799;52.390;6.136;2022-08-30T04:03:47;102160.06;;;12.36;100.00
37202;BME280;37799;52.390;6.136;2022-08-30T04:06:12;102163.56;;;12.35;100.00
37202;BME280;37799;52.390;6.136;2022-08-30T04:08:37;102173.94;;;12.35;100.00
37202;BME280;37799;52.390;6.136;2022-08-30T04:11:03;102171.41;;;12.31;100.00
37202;BME280;37799;52.390;6.136;2022-08-30T04:13:29;102167.09;;;12.30;100.00
37202;BME280;37799;52.390;6.136;2022-08-30T04:15:54;102169.72;;;12.28;100.00
37202;BME280;37799;52.390;6.136;2022-08-30T04:18:20;102171.44;;;12.29;100.00
37202;BME280;37799;52.390;6.136;2022-08-30T04:20:46;102173.16;;;12.30;100.00
37202;BME280;37799;52.390;6.136;2022-08-30T04:23:11;102176.69;;;12.23;100.00
37202;BME280;37799;52.390;6.136;2022-08-30T04:25:38;102173.25;;;12.24;100.00
37202;BME280;37799;52.390;6.136;2022-08-30T04:28:05;102178.41;;;12.27;100.00
37202;BME280;37799;52.390;6.136;2022-08-30T04:30:31;102185.34;;;12.22;100.00
37202;BME280;37799;52.390;6.136;2022-08-30T04:32:57;102183.75;;;12.12;100.00
37202;BME280;37799;52.390;6.136;2022-08-30T04:35:22;102187.25;;;12.11;100.00
37202;BME280;37799;52.390;6.136;2022-08-30T04:37:48;102195.88;;;12.10;100.00
37202;BME280;37799;52.390;6.136;2022-08-30T04:40:13;102190.75;;;12.05;100.00
37202;BME280;37799;52.390;6.136;2022-08-30T04:42:40;102200.31;;;12.02;100.00
37202;BME280;37799;52.390;6.136;2022-08-30T04:45:11;102202.94;;;11.99;100.00
37202;BME280;37799;52.390;6.136;2022-08-30T04:47:37;102200.34;;;11.97;100.00
37202;BME280;37799;52.390;6.136;2022-08-30T04:50:04;102203.81;;;11.95;100.00
37202;BME280;37799;52.390;6.136;2022-08-30T04:52:30;102201.22;;;11.95;100.00
37202;BME280;37799;52.390;6.136;2022-08-30T04:54:57;102203.81;;;11.95;100.00
37202;BME280;37799;52.390;6.136;2022-08-30T04:57:23;102202.94;;;11.96;100.00
37202;BME280;37799;52.390;6.136;2022-08-30T04:59:49;102199.44;;;12.01;100.00
37202;BME280;37799;52.390;6.136;2022-08-30T05:02:15;102202.00;;;12.06;100.00
37202;BME280;37799;52.390;6.136;2022-08-30T05:04:40;102197.63;;;12.11;100.00
37202;BME280;37799;52.390;6.136;2022-08-30T05:07:26;102204.47;;;12.18;100.00
37202;BME280;37799;52.390;6.136;2022-08-30T05:09:51;102200.94;;;12.22;100.00
37202;BME280;37799;52.390;6.136;2022-08-30T05:12:16;102210.47;;;12.22;100.00
37202;BME280;37799;52.390;6.136;2022-08-30T05:14:41;102207.84;;;12.26;100.00
37202;BME280;37799;52.390;6.136;2022-08-30T05:17:07;102221.72;;;12.22;100.00
37202;BME280;37799;52.390;6.136;2022-08-30T05:19:32;102209.56;;;12.27;100.00
37202;BME280;37799;52.390;6.136;2022-08-30T05:21:58;102220.00;;;12.24;100.00
37202;BME280;37799;52.390;6.136;2022-08-30T05:24:23;102223.38;;;12.29;100.00
37202;BME280;37799;52.390;6.136;2022-08-30T05:26:49;102229.44;;;12.30;100.00
37202;BME280;37799;52.390;6.136;2022-08-30T05:29:14;102225.06;;;12.33;100.00
37202;BME280;37799;52.390;6.136;2022-08-30T05:31:39;102234.56;;;12.34;100.00
37202;BME280;37799;52.390;6.136;2022-08-30T05:34:05;102231.94;;;12.39;100.00
37202;BME280;37799;52.390;6.136;2022-08-30T05:36:33;102231.78;;;12.50;100.00
37202;BME280;37799;52.390;6.136;2022-08-30T05:38:59;102238.69;;;12.54;100.00
37202;BME280;37799;52.390;6.136;2022-08-30T05:41:25;102235.13;;;12.61;100.00
37202;BME280;37799;52.390;6.136;2022-08-30T05:43:55;102235.97;;;12.63;100.00
37202;BME280;37799;52.390;6.136;2022-08-30T05:46:21;102235.03;;;12.68;100.00
37202;BME280;37799;52.390;6.136;2022-08-30T05:48:48;102231.47;;;12.77;100.00
37202;BME280;37799;52.390;6.136;2022-08-30T05:51:19;102235.69;;;12.86;100.00
37202;BME280;37799;52.390;6.136;2022-08-30T05:53:47;102236.53;;;12.89;100.00
37202;BME280;37799;52.390;6.136;2022-08-30T05:56:16;102237.22;;;13.00;100.00
37202;BME280;37799;52.390;6.136;2022-08-30T05:58:42;102238.88;;;13.08;100.00
37202;BME280;37799;52.390;6.136;2022-08-30T06:01:24;102245.69;;;13.16;100.00
37202;BME280;37799;52.390;6.136;2022-08-30T06:03:51;102243.94;;;13.18;100.00
37202;BME280;37799;52.390;6.136;2022-08-30T06:06:16;102245.47;;;13.33;100.00
37202;BME280;37799;52.390;6.136;2022-08-30T06:08:42;102249.69;;;13.42;100.00
37202;BME280;37799;52.390;6.136;2022-08-30T06:11:10;102237.53;;;13.42;100.00
37202;BME280;37799;52.390;6.136;2022-08-30T06:13:36;102247.69;;;13.57;100.00
37202;BME280;37799;52.390;6.136;2022-08-30T06:16:02;102251.03;;;13.64;100.00
37202;BME280;37799;52.390;6.136;2022-08-30T06:18:27;102251.69;;;13.77;100.00
37202;BME280;37799;52.390;6.136;2022-08-30T06:20:52;102249.78;;;13.88;100.00
37202;BME280;37799;52.390;6.136;2022-08-30T06:23:17;102249.59;;;13.99;100.00
37202;BME280;37799;52.390;6.136;2022-08-30T06:25:43;102251.06;;;14.13;100.00
37202;BME280;37799;52.390;6.136;2022-08-30T06:28:09;102251.69;;;14.26;100.00
37202;BME280;37799;52.390;6.136;2022-08-30T06:30:35;102248.94;;;14.35;100.00
37202;BME280;37799;52.390;6.136;2022-08-30T06:33:01;102252.25;;;14.42;100.00
37202;BME280;37799;52.390;6.136;2022-08-30T06:35:27;102247.75;;;14.53;100.00
37202;BME280;37799;52.390;6.136;2022-08-30T06:37:53;102250.91;;;14.67;100.00
37202;BME280;37799;52.390;6.136;2022-08-30T06:40:18;102258.34;;;14.87;100.00
37202;BME280;37799;52.390;6.136;2022-08-30T06:42:46;102256.06;;;15.12;100.00
37202;BME280;37799;52.390;6.136;2022-08-30T06:45:11;102262.75;;;15.24;100.00
37202;BME280;37799;52.390;6.136;2022-08-30T06:47:38;102257.88;;;15.46;100.00
37202;BME280;37799;52.390;6.136;2022-08-30T06:50:04;102263.03;;;15.86;100.00
37202;BME280;37799;52.390;6.136;2022-08-30T06:52:29;102252.25;;;15.98;100.00
37202;BME280;37799;52.390;6.136;2022-08-30T06:54:54;102262.34;;;16.12;100.00
37202;BME280;37799;52.390;6.136;2022-08-30T06:57:22;102256.72;;;16.27;100.00
37202;BME280;37799;52.390;6.136;2022-08-30T06:59:47;102264.16;;;16.42;100.00
37202;BME280;37799;52.390;6.136;2022-08-30T07:02:12;102263.63;;;16.61;100.00
37202;BME280;37799;52.390;6.136;2022-08-30T07:04:38;102271.75;;;17.12;100.00
37202;BME280;37799;52.390;6.136;2022-08-30T07:07:03;102272.81;;;17.89;100.00
37202;BME280;37799;52.390;6.136;2022-08-30T07:09:29;102271.22;;;18.58;100.00
37202;BME280;37799;52.390;6.136;2022-08-30T07:11:54;102276.25;;;19.11;100.00
37202;BME280;37799;52.390;6.136;2022-08-30T07:14:22;102273.50;;;19.59;100.00
37202;BME280;37799;52.390;6.136;2022-08-30T07:16:47;102280.16;;;19.68;100.00
37202;BME280;37799;52.390;6.136;2022-08-30T07:19:12;102276.03;;;19.83;100.00
37202;BME280;37799;52.390;6.136;2022-08-30T07:21:40;102277.09;;;19.99;100.00
37202;BME280;37799;52.390;6.136;2022-08-30T07:24:10;102281.13;;;20.48;100.00
37202;BME280;37799;52.390;6.136;2022-08-30T07:26:44;102284.72;;;20.85;100.00
37202;BME280;37799;52.390;6.136;2022-08-30T07:29:14;102282.66;;;21.10;100.00
37202;BME280;37799;52.390;6.136;2022-08-30T07:31:40;102289.03;;;21.24;100.00
37202;BME280;37799;52.390;6.136;2022-08-30T07:34:07;102291.44;;;21.47;100.00
37202;BME280;37799;52.390;6.136;2022-08-30T07:36:34;102288.72;;;22.02;100.00
37202;BME280;37799;52.390;6.136;2022-08-30T07:39:00;102283.88;;;22.45;100.00
37202;BME280;37799;52.390;6.136;2022-08-30T07:41:31;102286.63;;;22.59;100.00
37202;BME280;37799;52.390;6.136;2022-08-30T07:43:58;102289.94;;;22.95;100.00
37202;BME280;37799;52.390;6.136;2022-08-30T07:46:24;102291.47;;;23.47;99.12
37202;BME280;37799;52.390;6.136;2022-08-30T07:48:50;102284.03;;;23.99;91.38
37202;BME280;37799;52.390;6.136;2022-08-30T07:51:19;102280.53;;;24.13;90.26
37202;BME280;37799;52.390;6.136;2022-08-30T07:53:45;102285.34;;;24.21;88.20
37202;BME280;37799;52.390;6.136;2022-08-30T07:56:10;102284.31;;;24.09;86.43
37202;BME280;37799;52.390;6.136;2022-08-30T07:58:36;102287.50;;;24.00;85.80
37202;BME280;37799;52.390;6.136;2022-08-30T08:01:03;102296.38;;;23.69;84.54
37202;BME280;37799;52.390;6.136;2022-08-30T08:03:30;102293.97;;;23.80;85.04
37202;BME280;37799;52.390;6.136;2022-08-30T08:05:55;102292.50;;;23.60;82.79
37202;BME280;37799;52.390;6.136;2022-08-30T08:08:22;102284.50;;;22.99;85.91
37202;BME280;37799;52.390;6.136;2022-08-30T08:10:47;102274.38;;;23.07;84.83
37202;BME280;37799;52.390;6.136;2022-08-30T08:13:13;102288.66;;;23.03;88.37
37202;BME280;37799;52.390;6.136;2022-08-30T08:15:38;102283.13;;;23.23;87.85
37202;BME280;37799;52.390;6.136;2022-08-30T08:18:05;102278.13;;;23.94;82.58
37202;BME280;37799;52.390;6.136;2022-08-30T08:20:31;102288.75;;;24.08;80.04
37202;BME280;37799;52.390;6.136;2022-08-30T08:22:57;102274.75;;;24.06;79.10
37202;BME280;37799;52.390;6.136;2022-08-30T08:25:22;102293.28;;;24.36;75.90
37202;BME280;37799;52.390;6.136;2022-08-30T08:27:48;102294.69;;;24.70;74.44
37202;BME280;37799;52.390;6.136;2022-08-30T08:30:16;102279.66;;;24.42;70.69
37202;BME280;37799;52.390;6.136;2022-08-30T08:32:42;102295.50;;;24.85;71.65
37202;BME280;37799;52.390;6.136;2022-08-30T08:35:07;102291.59;;;25.19;70.97
37202;BME280;37799;52.390;6.136;2022-08-30T08:37:35;102289.69;;;25.75;69.31
37202;BME280;37799;52.390;6.136;2022-08-30T08:40:00;102290.47;;;26.03;61.11
37202;BME280;37799;52.390;6.136;2022-08-30T08:42:49;102294.09;;;26.02;60.29
37202;BME280;37799;52.390;6.136;2022-08-30T08:45:24;102297.28;;;26.07;59.43
37202;BME280;37799;52.390;6.136;2022-08-30T08:48:02;102299.28;;;26.03;55.94
37202;BME280;37799;52.390;6.136;2022-08-30T08:50:28;102291.28;;;25.78;54.11
37202;BME280;37799;52.390;6.136;2022-08-30T08:53:13;102293.13;;;25.09;56.86
37202;BME280;37799;52.390;6.136;2022-08-30T08:55:59;102285.81;;;25.27;57.04
37202;BME280;37799;52.390;6.136;2022-08-30T08:58:31;102287.94;;;25.35;58.77
37202;BME280;37799;52.390;6.136;2022-08-30T09:01:01;102298.16;;;25.68;56.19
37202;BME280;37799;52.390;6.136;2022-08-30T09:03:28;102294.28;;;25.86;54.58
37202;BME280;37799;52.390;6.136;2022-08-30T09:05:54;102296.00;;;26.25;54.17
37202;BME280;37799;52.390;6.136;2022-08-30T09:08:21;102295.69;;;26.17;51.81
37202;BME280;37799;52.390;6.136;2022-08-30T09:10:57;102287.72;;;26.30;51.16
37202;BME280;37799;52.390;6.136;2022-08-30T09:13:25;102289.84;;;26.12;50.19
37202;BME280;37799;52.390;6.136;2022-08-30T09:15:52;102289.34;;;26.20;49.93
37202;BME280;37799;52.390;6.136;2022-08-30T09:18:17;102293.44;;;25.85;50.44
37202;BME280;37799;52.390;6.136;2022-08-30T09:20:45;102291.59;;;25.73;52.01
37202;BME280;37799;52.390;6.136;2022-08-30T09:25:52;102294.88;;;25.77;50.67
37202;BME280;37799;52.390;6.136;2022-08-30T09:28:27;102301.75;;;26.19;50.01
37202;BME280;37799;52.390;6.136;2022-08-30T09:31:20;102294.09;;;26.14;49.25
37202;BME280;37799;52.390;6.136;2022-08-30T09:34:21;102291.56;;;26.13;48.55
37202;BME280;37799;52.390;6.136;2022-08-30T09:36:52;102294.34;;;26.37;47.38
37202;BME280;37799;52.390;6.136;2022-08-30T09:39:31;102291.16;;;26.19;47.66
37202;BME280;37799;52.390;6.136;2022-08-30T09:42:14;102279.25;;;26.37;48.96
37202;BME280;37799;52.390;6.136;2022-08-30T09:44:42;102277.03;;;26.93;47.38
37202;BME280;37799;52.390;6.136;2022-08-30T09:47:20;102281.72;;;27.02;43.29
37202;BME280;37799;52.390;6.136;2022-08-30T09:49:45;102267.50;;;26.78;44.59
37202;BME280;37799;52.390;6.136;2022-08-30T09:52:33;102274.25;;;27.08;45.27
37202;BME280;37799;52.390;6.136;2022-08-30T09:55:12;102272.19;;;27.24;45.38
37202;BME280;37799;52.390;6.136;2022-08-30T10:00:19;102264.56;;;26.70;44.46
37202;BME280;37799;52.390;6.136;2022-08-30T10:05:52;102268.38;;;26.66;42.55
37202;BME280;37799;52.390;6.136;2022-08-30T10:11:12;102270.53;;;26.10;44.26
37202;BME280;37799;52.390;6.136;2022-08-30T10:13:54;102259.47;;;26.29;44.78
37202;BME280;37799;52.390;6.136;2022-08-30T10:16:34;102262.97;;;26.29;44.85
37202;BME280;37799;52.390;6.136;2022-08-30T10:19:07;102259.31;;;26.44;44.74
37202;BME280;37799;52.390;6.136;2022-08-30T10:21:40;102271.47;;;26.72;43.75
37202;BME280;37799;52.390;6.136;2022-08-30T10:24:11;102275.50;;;27.15;42.09
37202;BME280;37799;52.390;6.136;2022-08-30T10:26:53;102263.38;;;26.74;41.60
37202;BME280;37799;52.390;6.136;2022-08-30T10:32:16;102262.78;;;26.94;42.27
37202;BME280;37799;52.390;6.136;2022-08-30T10:35:42;102271.28;;;27.36;39.67
37202;BME280;37799;52.390;6.136;2022-08-30T10:38:02;102267.88;;;27.10;39.30
37202;BME280;37799;52.390;6.136;2022-08-30T10:40:40;102275.41;;;27.40;41.33
37202;BME280;37799;52.390;6.136;2022-08-30T10:43:35;102260.44;;;27.50;40.76
37202;BME280;37799;52.390;6.136;2022-08-30T10:46:08;102268.81;;;27.33;39.72
37202;BME280;37799;52.390;6.136;2022-08-30T10:48:42;102275.50;;;27.62;40.86
37202;BME280;37799;52.390;6.136;2022-08-30T10:51:13;102271.00;;;27.87;39.58
37202;BME280;37799;52.390;6.136;2022-08-30T10:53:46;102270.09;;;27.64;39.99
37202;BME280;37799;52.390;6.136;2022-08-30T10:56:17;102259.31;;;27.66;39.76
37202;BME280;37799;52.390;6.136;2022-08-30T10:58:46;102259.41;;;28.10;39.82
37202;BME280;37799;52.390;6.136;2022-08-30T11:01:23;102262.50;;;28.28;38.80
37202;BME280;37799;52.390;6.136;2022-08-30T11:10:10;102266.09;;;27.70;39.18
37202;BME280;37799;52.390;6.136;2022-08-30T11:15:18;102251.59;;;28.31;39.41
37202;BME280;37799;52.390;6.136;2022-08-30T11:20:44;102249.13;;;28.17;37.58
37202;BME280;37799;52.390;6.136;2022-08-30T11:23:33;102252.56;;;28.41;35.79
37202;BME280;37799;52.390;6.136;2022-08-30T11:26:08;102247.94;;;28.66;36.86
37202;BME280;37799;52.390;6.136;2022-08-30T11:33:47;102253.13;;;28.23;36.65
37202;BME280;37799;52.390;6.136;2022-08-30T11:41:39;102248.09;;;28.42;38.45
37202;BME280;37799;52.390;6.136;2022-08-30T11:46:50;102249.81;;;29.08;35.43
37202;BME280;37799;52.390;6.136;2022-08-30T12:02:08;102228.66;;;28.62;36.67
37202;BME280;37799;52.390;6.136;2022-08-30T12:04:41;102223.97;;;28.55;35.98
37202;BME280;37799;52.390;6.136;2022-08-30T12:07:09;102219.09;;;28.71;35.33
37202;BME280;37799;52.390;6.136;2022-08-30T12:12:11;102227.41;;;29.00;35.89
37202;BME280;37799;52.390;6.136;2022-08-30T12:14:55;102227.22;;;28.58;34.73
37202;BME280;37799;52.390;6.136;2022-08-30T12:17:51;102219.09;;;28.60;36.62
37202;BME280;37799;52.390;6.136;2022-08-30T12:20:42;102214.75;;;28.14;35.30
37202;BME280;37799;52.390;6.136;2022-08-30T12:25:47;102217.59;;;27.42;34.55
37202;BME280;37799;52.390;6.136;2022-08-30T12:28:20;102225.69;;;27.65;34.91
37202;BME280;37799;52.390;6.136;2022-08-30T12:30:46;102214.25;;;27.51;36.23
37202;BME280;37799;52.390;6.136;2022-08-30T12:33:13;102213.13;;;27.67;37.26
37202;BME280;37799;52.390;6.136;2022-08-30T12:35:47;102206.59;;;27.82;37.20
37202;BME280;37799;52.390;6.136;2022-08-30T12:38:18;102216.44;;;28.04;35.40
37202;BME280;37799;52.390;6.136;2022-08-30T12:40:49;102202.75;;;27.75;35.41
37202;BME280;37799;52.390;6.136;2022-08-30T12:43:23;102208.28;;;27.83;34.58
37202;BME280;37799;52.390;6.136;2022-08-30T12:45:49;102199.88;;;28.00;36.38
37202;BME280;37799;52.390;6.136;2022-08-30T12:48:17;102197.28;;;27.76;36.13
37202;BME280;37799;52.390;6.136;2022-08-30T12:50:47;102194.25;;;27.81;35.46
37202;BME280;37799;52.390;6.136;2022-08-30T12:53:30;102196.69;;;27.38;34.95
37202;BME280;37799;52.390;6.136;2022-08-30T12:56:07;102193.56;;;27.09;35.71
37202;BME280;37799;52.390;6.136;2022-08-30T12:58:43;102190.19;;;27.18;36.87
37202;BME280;37799;52.390;6.136;2022-08-30T13:01:30;102191.84;;;27.43;36.03
37202;BME280;37799;52.390;6.136;2022-08-30T13:09:01;102189.09;;;26.72;36.75
37202;BME280;37799;52.390;6.136;2022-08-30T13:11:26;102179.13;;;26.63;37.73
37202;BME280;37799;52.390;6.136;2022-08-30T13:14:31;102177.25;;;26.53;40.33
37202;BME280;37799;52.390;6.136;2022-08-30T13:17:23;102167.91;;;26.84;37.24
37202;BME280;37799;52.390;6.136;2022-08-30T13:20:04;102176.75;;;26.95;37.04
37202;BME280;37799;52.390;6.136;2022-08-30T13:24:59;102175.56;;;27.58;36.40
37202;BME280;37799;52.390;6.136;2022-08-30T13:27:25;102173.34;;;27.76;35.60
37202;BME280;37799;52.390;6.136;2022-08-30T13:29:51;102173.09;;;27.44;34.92
37202;BME280;37799;52.390;6.136;2022-08-30T13:32:17;102158.13;;;27.43;35.37
37202;BME280;37799;52.390;6.136;2022-08-30T13:34:43;102164.31;;;27.55;35.51
37202;BME280;37799;52.390;6.136;2022-08-30T13:37:21;102163.53;;;27.77;35.80
37202;BME280;37799;52.390;6.136;2022-08-30T13:39:47;102164.50;;;27.98;35.80
37202;BME280;37799;52.390;6.136;2022-08-30T13:42:12;102155.91;;;27.83;34.71
37202;BME280;37799;52.390;6.136;2022-08-30T13:44:37;102158.72;;;28.15;34.19
37202;BME280;37799;52.390;6.136;2022-08-30T13:47:03;102156.25;;;28.12;33.33
37202;BME280;37799;52.390;6.136;2022-08-30T13:49:32;102150.59;;;28.06;32.27
37202;BME280;37799;52.390;6.136;2022-08-30T13:51:59;102146.59;;;28.11;33.90
37202;BME280;37799;52.390;6.136;2022-08-30T13:54:24;102145.41;;;28.04;32.39
37202;BME280;37799;52.390;6.136;2022-08-30T13:56:51;102150.22;;;27.77;32.28
37202;BME280;37799;52.390;6.136;2022-08-30T13:59:18;102146.47;;;27.68;33.44